Time;durP1;ratioP1;P1;durP2;ratioP2;P2;SDS_P1;SDS_P2;PMS_P1;PMS_P2;Temp;Humidity;BMP_temperature;BMP_pressure;BME280_temperature;BME280_humidity;BME280_pressure;Samples;Min_cycle;Max_cycle;Signal;HPM_P1;HPM_P2
2022/05/03 00:01:42;;;;;;;18.37;11.90;;;;;;;9.31;64.06;100575.73;1692504;82;21059;-81
2022/05/03 00:04:46;;;;;;;17.57;11.50;;;;;;;9.23;64.01;100585.56;1706971;82;21065;-81
2022/05/03 00:07:29;;;;;;;17.97;12.27;;;;;;;9.18;64.27;100582.21;1729159;82;21299;-72
2022/05/03 00:10:10;;;;;;;15.63;11.97;;;;;;;9.16;64.49;100580.94;1726625;82;20980;-72
2022/05/03 00:12:55;;;;;;;14.77;11.37;;;;;;;9.12;64.50;100581.08;1726460;82;21079;-72
2022/05/03 00:15:24;;;;;;;17.23;11.63;;;;;;;9.05;64.55;100582.14;1720006;82;21086;-72
2022/05/03 00:17:54;;;;;;;14.58;11.53;;;;;;;8.99;64.69;100581.01;1731935;82;21051;-72
2022/05/03 00:20:21;;;;;;;17.57;11.90;;;;;;;8.93;64.79;100582.03;1723279;82;21046;-72
2022/05/03 00:22:48;;;;;;;17.43;12.70;;;;;;;8.88;64.87;100578.69;1717752;82;21020;-82
2022/05/03 00:25:17;;;;;;;20.50;12.47;;;;;;;8.82;64.97;100572.33;1701492;82;21114;-72
2022/05/03 00:27:44;;;;;;;18.40;13.27;;;;;;;8.75;64.90;100569.45;1727038;82;21467;-72
2022/05/03 00:30:12;;;;;;;17.53;13.23;;;;;;;8.66;65.11;100570.11;1719061;82;21218;-72
2022/05/03 00:32:40;;;;;;;17.37;12.23;;;;;;;8.62;65.11;100565.02;1720924;82;21181;-78
2022/05/03 00:35:09;;;;;;;18.33;12.93;;;;;;;8.54;65.25;100567.83;1737062;82;20995;-72
2022/05/03 00:37:37;;;;;;;16.97;12.13;;;;;;;8.50;65.49;100563.56;1731899;82;21210;-72
2022/05/03 00:40:06;;;;;;;18.97;12.10;;;;;;;8.44;65.46;100563.73;1719053;82;21062;-73
2022/05/03 00:42:50;;;;;;;15.60;12.10;;;;;;;8.36;65.55;100560.42;1723301;82;20992;-72
2022/05/03 00:45:51;;;;;;;17.17;11.83;;;;;;;8.30;65.82;100561.44;1730779;82;21123;-72
2022/05/03 00:48:54;;;;;;;16.10;11.87;;;;;;;8.27;66.06;100558.90;1726183;82;21537;-73
2022/05/03 00:51:43;;;;;;;17.27;12.53;;;;;;;8.22;66.23;100559.00;1727372;82;21092;-77
2022/05/03 00:54:48;;;;;;;18.93;12.53;;;;;;;8.20;66.31;100559.52;1720415;82;21466;-73
2022/05/03 00:57:40;;;;;;;17.30;12.57;;;;;;;8.19;66.49;100559.53;1728226;82;21090;-72
2022/05/03 01:00:14;;;;;;;18.17;13.03;;;;;;;8.15;66.55;100560.07;1719669;82;21126;-73
2022/05/03 01:03:05;;;;;;;17.63;12.83;;;;;;;8.11;66.77;100557.11;1723948;82;20933;-74
2022/05/03 01:05:38;;;;;;;;;;;;;;;8.07;66.82;100560.70;1731112;82;21636;-73
2022/05/03 01:08:08;;;;;;;18.27;12.80;;;;;;;8.01;67.19;100554.33;1728843;82;20417;-78
2022/05/03 01:10:55;;;;;;;17.40;12.80;;;;;;;7.94;66.91;100554.91;1721190;82;21076;-73
2022/05/03 01:13:27;;;;;;;22.07;13.77;;;;;;;7.92;67.07;100556.69;1730605;82;21090;-73
2022/05/03 01:16:11;;;;;;;17.97;12.87;;;;;;;7.89;67.18;100555.45;1724672;82;21560;-73
2022/05/03 01:18:56;;;;;;;18.27;12.80;;;;;;;7.88;67.20;100555.50;1730058;82;21045;-73
2022/05/03 01:22:02;;;;;;;17.57;13.13;;;;;;;7.83;67.33;100551.23;1723245;82;22174;-82
2022/05/03 01:24:39;;;;;;;20.73;13.67;;;;;;;7.79;67.51;100548.30;1727486;82;21043;-72
2022/05/03 01:27:24;;;;;;;21.90;13.70;;;;;;;7.73;67.56;100556.28;1725168;82;21366;-73
2022/05/03 01:29:51;;;;;;;18.50;13.33;;;;;;;7.70;67.61;100557.62;1723877;82;21113;-72
2022/05/03 01:35:06;;;;;;;18.57;12.90;;;;;;;7.66;67.67;100555.99;1889022;76;26309;-73
2022/05/03 01:38:08;;;;;;;18.00;13.67;;;;;;;7.59;67.89;100551.38;1859938;77;21019;-72
2022/05/03 01:40:45;;;;;;;16.77;13.23;;;;;;;7.57;68.08;100553.59;1858667;77;21112;-73
2022/05/03 01:43:42;;;;;;;18.67;12.73;;;;;;;7.53;68.19;100551.94;1858845;77;21321;-73
2022/05/03 01:46:29;;;;;;;20.20;12.90;;;;;;;7.49;68.34;100556.82;1859788;77;21008;-80
2022/05/03 01:52:51;;;;;;;16.70;12.17;;;;;;;7.49;68.94;100553.77;1859963;77;21276;-73
2022/05/03 01:55:26;;;;;;;17.87;13.30;;;;;;;7.52;69.29;100556.30;1860210;77;21890;-72
2022/05/03 01:58:36;;;;;;;17.73;13.37;;;;;;;7.54;69.43;100554.52;1858418;77;21502;-72
2022/05/03 02:01:41;;;;;;;15.58;11.93;;;;;;;7.59;69.18;100554.40;1860073;77;21517;-78
2022/05/03 02:04:44;;;;;;;18.70;13.63;;;;;;;7.71;69.25;100544.16;1859855;77;21482;-73
2022/05/03 02:07:55;;;;;;;18.07;13.10;;;;;;;7.77;69.19;100546.63;1859957;77;21074;-73
2022/05/03 02:10:52;;;;;;;17.30;13.20;;;;;;;7.72;69.17;100542.80;1856428;77;21528;-73
2022/05/03 02:17:05;;;;;;;18.97;13.83;;;;;;;7.68;69.41;100541.63;1860219;77;21541;-76
2022/05/03 02:19:56;;;;;;;16.83;12.77;;;;;;;7.66;69.54;100542.09;1858601;77;21027;-77
2022/05/03 02:23:02;;;;;;;18.57;12.87;;;;;;;7.64;69.57;100538.66;1860160;77;21008;-84
2022/05/03 02:26:11;;;;;;;17.60;12.77;;;;;;;7.62;69.60;100541.31;1859837;77;22019;-73
2022/05/03 02:28:54;;;;;;;17.17;13.13;;;;;;;7.65;69.80;100536.45;1860150;77;20976;-73
2022/05/03 02:31:30;;;;;;;20.63;13.43;;;;;;;7.68;69.82;100533.80;1859939;77;20984;-73
2022/05/03 02:34:02;;;;;;;18.40;13.13;;;;;;;7.65;69.87;100534.72;1857453;76;20931;-82
2022/05/03 02:36:33;;;;;;;16.40;13.13;;;;;;;7.63;69.85;100536.95;1859713;77;21000;-73
2022/05/03 02:39:06;;;;;;;23.60;13.43;;;;;;;7.60;69.86;100544.40;1859694;77;21104;-78
2022/05/03 02:41:39;;;;;;;16.57;12.53;;;;;;;7.60;70.11;100541.34;1859686;77;21035;-73
2022/05/03 02:44:07;;;;;;;16.53;12.57;;;;;;;7.65;70.29;100545.58;1859805;77;20965;-73
2022/05/03 02:47:06;;;;;;;17.97;12.80;;;;;;;7.64;70.16;100540.81;1859214;77;21011;-72
2022/05/03 02:50:11;;;;;;;16.30;13.07;;;;;;;7.62;70.24;100547.84;1859215;77;21054;-72
2022/05/03 02:52:59;;;;;;;17.50;13.03;;;;;;;7.60;70.25;100543.09;1859407;77;21150;-72
2022/05/03 02:55:43;;;;;;;18.50;13.00;;;;;;;7.60;70.48;100547.01;1859367;77;21046;-72
2022/05/03 02:58:39;;;;;;;19.37;13.10;;;;;;;7.63;70.57;100549.55;1859482;77;21027;-74
2022/05/03 03:01:47;;;;;;;16.27;12.73;;;;;;;7.63;70.57;100543.47;1859227;77;21051;-73
2022/05/03 03:04:39;;;;;;;17.67;13.27;;;;;;;7.61;70.47;100546.10;1859304;77;21383;-74
2022/05/03 03:07:07;;;;;;;18.30;13.27;;;;;;;7.63;70.82;100545.63;1852023;77;21111;-73
2022/05/03 03:10:04;;;;;;;16.47;13.37;;;;;;;7.67;71.00;100543.80;1859352;77;21466;-73
2022/05/03 03:12:59;;;;;;;19.37;13.23;;;;;;;7.66;71.14;100546.86;1781049;79;21055;-72
2022/05/03 03:15:31;;;;;;;17.73;13.13;;;;;;;7.68;71.30;100547.69;1781297;80;21036;-73
2022/05/03 03:18:01;;;;;;;19.57;13.90;;;;;;;7.69;71.26;100547.24;1780938;80;21560;-72
2022/05/03 03:20:29;;;;;;;18.70;13.90;;;;;;;7.66;71.32;100544.25;1781137;80;21831;-73
2022/05/03 03:22:56;;;;;;;18.17;13.70;;;;;;;7.68;71.62;100541.17;1780759;80;21103;-74
2022/05/03 03:25:24;;;;;;;19.13;13.67;;;;;;;7.71;71.76;100544.16;1781251;80;21063;-72
2022/05/03 03:27:57;;;;;;;17.53;13.70;;;;;;;7.74;72.02;100538.87;1780879;80;21031;-72
2022/05/03 03:30:24;;;;;;;16.57;12.57;;;;;;;7.77;72.05;100541.40;1781279;80;21176;-73
2022/05/03 03:32:56;;;;;;;21.03;14.17;;;;;;;7.78;72.07;100545.72;1780850;80;21172;-76
2022/05/03 03:35:24;;;;;;;18.27;12.97;;;;;;;7.81;72.19;100537.81;1795816;79;21730;-73
2022/05/03 03:37:53;;;;;;;18.30;13.00;;;;;;;7.79;71.94;100547.45;1797835;79;21054;-73
2022/05/03 03:40:20;;;;;;;18.97;13.20;;;;;;;7.75;71.88;100547.95;1798376;79;21043;-76
2022/05/03 03:42:49;;;;;;;16.63;12.90;;;;;;;7.74;71.77;100542.78;1797869;79;21685;-72
2022/05/03 03:45:17;;;;;;;17.77;12.83;;;;;;;7.74;71.79;100544.09;1797829;79;21117;-73
2022/05/03 03:47:46;;;;;;;19.17;13.20;;;;;;;7.74;71.75;100539.72;1798154;79;21012;-73
2022/05/03 03:50:14;;;;;;;18.63;13.47;;;;;;;7.70;71.60;100540.66;1846800;77;20924;-73
2022/05/03 03:52:46;;;;;;;15.87;13.50;;;;;;;7.66;71.67;100536.88;1865447;76;21050;-73
2022/05/03 03:55:13;;;;;;;17.00;13.03;;;;;;;7.66;71.75;100546.86;1865363;76;20987;-73
2022/05/03 03:57:41;;;;;;;17.23;12.93;;;;;;;7.69;71.80;100548.09;1865342;76;21906;-73
2022/05/03 04:00:12;;;;;;;16.77;12.43;;;;;;;7.67;71.84;100547.27;1865353;76;21464;-73
2022/05/03 04:02:45;;;;;;;21.67;13.83;;;;;;;7.68;72.02;100549.45;1865085;76;21046;-76
2022/05/03 04:05:19;;;;;;;16.70;13.17;;;;;;;7.69;72.12;100548.09;1865461;76;21539;-73
2022/05/03 04:07:47;;;;;;;17.20;12.13;;;;;;;7.69;72.23;100545.48;1865242;76;21039;-72
2022/05/03 04:10:14;;;;;;;17.87;13.33;;;;;;;7.71;72.40;100551.98;1851737;76;21130;-86
2022/05/03 04:12:42;;;;;;;19.17;13.17;;;;;;;7.74;72.49;100548.84;1860143;76;21016;-74
2022/05/03 04:15:11;;;;;;;20.50;14.10;;;;;;;7.75;72.51;100553.16;1865378;76;21098;-81
2022/05/03 04:17:38;;;;;;;20.03;14.77;;;;;;;7.78;72.63;100552.23;1864981;76;21035;-72
2022/05/03 04:20:06;;;;;;;20.50;14.23;;;;;;;7.84;72.84;100556.00;1865747;76;21114;-72
2022/05/03 04:22:35;;;;;;;18.90;13.90;;;;;;;7.87;72.82;100553.34;1833023;76;21198;-73
2022/05/03 04:25:04;;;;;;;19.50;13.47;;;;;;;7.92;72.93;100555.83;1865577;76;21040;-74
2022/05/03 04:27:31;;;;;;;17.67;12.63;;;;;;;7.95;72.89;100561.86;1864986;76;21021;-75
2022/05/03 04:30:01;;;;;;;16.30;12.80;;;;;;;8.00;72.87;100559.12;1865444;76;21465;-74
2022/05/03 04:32:31;;;;;;;17.98;12.55;;;;;;;8.05;73.00;100563.34;1864723;76;21517;-75
2022/05/03 04:34:59;;;;;;;16.77;12.40;;;;;;;8.10;72.69;100566.30;1845216;76;21157;-74
2022/05/03 04:37:26;;;;;;;19.17;13.10;;;;;;;8.12;72.64;100569.28;1838688;77;20974;-77
2022/05/03 04:39:54;;;;;;;18.60;13.10;;;;;;;8.19;72.66;100570.83;1845163;77;21427;-72
2022/05/03 04:42:21;;;;;;;17.57;13.30;;;;;;;8.25;72.67;100565.45;1836769;77;21020;-76
2022/05/03 04:44:48;;;;;;;17.90;12.83;;;;;;;8.32;72.71;100567.48;1840356;77;21648;-72
2022/05/03 04:47:15;;;;;;;19.53;12.73;;;;;;;8.38;72.63;100568.63;1831002;77;21088;-73
2022/05/03 04:49:42;;;;;;;18.73;13.57;;;;;;;8.41;72.64;100566.42;1825336;77;21423;-72
2022/05/03 04:52:10;;;;;;;17.73;13.60;;;;;;;8.44;72.62;100568.95;1845989;77;21011;-74
2022/05/03 04:54:37;;;;;;;18.10;13.80;;;;;;;8.50;72.84;100567.48;1845769;77;21260;-73
2022/05/03 04:57:07;;;;;;;17.50;13.67;;;;;;;8.55;72.82;100564.77;1846005;77;20977;-72
2022/05/03 04:59:35;;;;;;;16.63;13.07;;;;;;;8.57;72.82;100571.66;1837828;77;21938;-75
2022/05/03 05:02:03;;;;;;;19.57;13.33;;;;;;;8.61;72.90;100564.14;1811974;77;20969;-77
2022/05/03 05:04:30;;;;;;;18.87;13.80;;;;;;;8.63;72.71;100561.05;1845580;77;20989;-72
2022/05/03 05:06:57;;;;;;;19.80;14.37;;;;;;;8.68;72.81;100567.02;1828792;77;21545;-79
2022/05/03 05:09:24;;;;;;;20.63;14.67;;;;;;;8.73;72.90;100564.28;1817646;77;21033;-77
2022/05/03 05:11:51;;;;;;;18.87;13.80;;;;;;;8.79;73.11;100566.73;1818159;77;22141;-78
2022/05/03 05:14:20;;;;;;;17.10;14.30;;;;;;;8.87;73.41;100573.06;1813048;77;20984;-75
2022/05/03 05:16:48;;;;;;;20.83;14.90;;;;;;;8.96;73.50;100574.11;1821995;77;22118;-72
2022/05/03 05:19:16;;;;;;;20.50;14.67;;;;;;;9.04;73.51;100573.45;1811685;77;21580;-73
2022/05/03 05:21:43;;;;;;;20.67;14.73;;;;;;;9.13;73.49;100576.25;1820484;77;21072;-77
2022/05/03 05:24:11;;;;;;;17.33;13.53;;;;;;;9.23;73.38;100576.83;1812799;77;21167;-77
2022/05/03 05:26:39;;;;;;;21.03;13.17;;;;;;;9.29;73.19;100570.98;1812446;77;21513;-72
2022/05/03 05:29:06;;;;;;;15.67;13.33;;;;;;;9.33;72.74;100576.52;1812944;77;21039;-78
2022/05/03 05:31:33;;;;;;;16.93;13.23;;;;;;;9.40;72.69;100573.30;1813407;77;21051;-73
2022/05/03 05:34:00;;;;;;;17.93;14.10;;;;;;;9.47;72.64;100569.58;1844891;77;20988;-78
2022/05/03 05:36:27;;;;;;;19.23;14.20;;;;;;;9.56;72.79;100571.94;1859032;77;21012;-78
2022/05/03 05:38:53;;;;;;;18.00;14.27;;;;;;;9.64;72.78;100569.52;1838889;76;20989;-72
2022/05/03 05:41:21;;;;;;;15.27;13.20;;;;;;;9.70;72.87;100573.26;1847026;77;20976;-78
2022/05/03 05:43:48;;;;;;;18.57;13.57;;;;;;;9.76;72.82;100580.48;1854463;77;20972;-78
2022/05/03 05:46:15;;;;;;;16.33;13.23;;;;;;;9.87;73.14;100580.62;1857624;77;21020;-78
2022/05/03 05:48:42;;;;;;;17.43;14.17;;;;;;;9.96;73.24;100576.39;1843482;76;21094;-75
2022/05/03 05:51:09;;;;;;;17.33;14.40;;;;;;;10.08;73.45;100573.83;1843158;76;21047;-75
2022/05/03 05:53:36;;;;;;;16.37;13.63;;;;;;;10.16;73.54;100573.13;1858516;77;21000;-78
2022/05/03 05:56:04;;;;;;;18.60;13.30;;;;;;;10.27;73.47;100569.27;1846746;76;21469;-74
2022/05/03 05:58:32;;;;;;;16.13;12.87;;;;;;;10.38;73.31;100574.16;1858098;76;20984;-76
2022/05/03 06:00:59;;;;;;;18.63;13.10;;;;;;;10.49;72.91;100578.59;1843040;75;21061;-72
2022/05/03 06:03:28;;;;;;;15.10;11.97;;;;;;;10.59;72.64;100576.98;1857092;77;21003;-74
2022/05/03 06:06:01;;;;;;;17.07;12.73;;;;;;;10.69;72.42;100578.36;1833102;77;20992;-74
2022/05/03 06:08:26;;;;;;;16.27;12.82;;;;;;;10.78;72.14;100574.55;1846503;77;21063;-76
2022/05/03 06:10:57;;;;;;;17.33;13.13;;;;;;;10.90;72.12;100569.75;1859390;77;21015;-74
2022/05/03 06:13:23;;;;;;;16.43;12.07;;;;;;;11.04;71.67;100569.25;1859009;77;21172;-74
2022/05/03 06:15:50;;;;;;;18.67;12.17;;;;;;;11.16;71.18;100571.88;1858760;77;21093;-76
2022/05/03 06:18:17;;;;;;;13.00;10.67;;;;;;;11.29;70.85;100564.42;1859053;77;20992;-76
2022/05/03 06:20:44;;;;;;;15.00;11.13;;;;;;;11.40;70.17;100570.12;1842772;77;21036;-81
2022/05/03 06:23:11;;;;;;;15.87;10.93;;;;;;;11.52;69.59;100573.58;1830151;77;21043;-77
2022/05/03 06:25:38;;;;;;;15.83;11.10;;;;;;;11.64;69.19;100573.59;1862608;77;22028;-76
2022/05/03 06:28:05;;;;;;;14.55;10.38;;;;;;;11.75;68.66;100571.40;1862467;77;21047;-76
2022/05/03 06:30:32;;;;;;;15.83;10.67;;;;;;;11.86;68.41;100572.33;1831281;77;21039;-78
2022/05/03 06:32:59;;;;;;;15.88;11.68;;;;;;;11.96;68.15;100564.92;1825801;78;21113;-78
2022/05/03 06:35:28;;;;;;;14.80;10.80;;;;;;;12.11;68.23;100570.00;1825616;77;21007;-78
2022/05/03 06:37:55;;;;;;;14.43;10.47;;;;;;;12.24;67.85;100577.78;1825319;78;21173;-78
2022/05/03 06:40:22;;;;;;;16.20;10.15;;;;;;;12.35;67.49;100575.56;1825299;78;21047;-79
2022/05/03 06:42:50;;;;;;;13.83;9.48;;;;;;;12.45;67.21;100579.53;1825249;78;21014;-77
2022/05/03 06:45:17;;;;;;;12.53;8.70;;;;;;;12.56;66.85;100577.77;1825563;78;20987;-78
2022/05/03 06:47:45;;;;;;;12.68;8.28;;;;;;;12.71;66.59;100578.88;1825257;78;21425;-79
2022/05/03 06:50:12;;;;;;;10.60;8.08;;;;;;;12.86;66.15;100575.59;1836673;77;21788;-79
2022/05/03 06:52:39;;;;;;;11.10;7.42;;;;;;;13.01;65.52;100571.89;1853534;77;20976;-79
2022/05/03 06:55:07;;;;;;;10.80;7.15;;;;;;;13.10;64.92;100573.64;1778067;80;21067;-78
2022/05/03 06:57:35;;;;;;;10.68;7.25;;;;;;;13.21;64.22;100569.21;1797735;79;21044;-80
2022/05/03 07:00:05;;;;;;;9.48;6.72;;;;;;;13.31;63.97;100574.49;1791757;79;21529;-79
2022/05/03 07:02:33;;;;;;;11.12;6.97;;;;;;;13.45;63.81;100579.13;1807241;78;21235;-78
2022/05/03 07:05:01;;;;;;;11.63;6.83;;;;;;;13.60;63.22;100578.87;1788974;80;21028;-78
2022/05/03 07:07:28;;;;;;;8.23;6.58;;;;;;;13.69;62.50;100584.16;1820567;78;21111;-79
2022/05/03 07:09:56;;;;;;;10.20;7.30;;;;;;;13.75;61.96;100576.00;1816734;78;21538;-78
2022/05/03 07:12:23;;;;;;;11.97;7.12;;;;;;;13.83;62.12;100579.97;1788773;80;21105;-78
2022/05/03 07:14:50;;;;;;;9.15;6.80;;;;;;;13.95;61.84;100582.47;1818136;78;21180;-78
2022/05/03 07:22:50;;;;;;;9.00;6.40;;;;;;;14.23;60.68;100588.57;1789137;80;21004;-78
2022/05/03 07:25:17;;;;;;;10.38;8.05;;;;;;;14.32;60.49;100592.53;1821686;78;21013;-80
2022/05/03 07:27:46;;;;;;;11.50;7.42;;;;;;;14.40;60.24;100589.52;1788837;80;21114;-77
2022/05/03 07:30:15;;;;;;;10.18;8.20;;;;;;;14.47;60.06;100597.53;1821098;78;21008;-74
2022/05/03 07:32:44;;;;;;;9.75;8.15;;;;;;;14.52;59.62;100600.80;1788906;80;21470;-78
2022/05/03 07:35:12;;;;;;;13.38;9.38;;;;;;;14.54;59.68;100587.55;1821205;78;21025;-74
2022/05/03 07:37:41;;;;;;;13.62;9.13;;;;;;;14.60;59.41;100591.19;1821264;78;21099;-80
2022/05/03 07:40:10;;;;;;;11.78;8.85;;;;;;;14.63;59.12;100594.55;1789496;80;21785;-76
2022/05/03 07:42:37;;;;;;;12.03;8.58;;;;;;;14.65;58.85;100591.34;1821145;78;21516;-78
2022/05/03 07:45:05;;;;;;;11.88;8.13;;;;;;;14.73;58.81;100589.63;1789028;80;21509;-79
2022/05/03 07:47:33;;;;;;;10.50;8.10;;;;;;;14.82;58.63;100593.11;1821462;78;21032;-79
2022/05/03 07:50:00;;;;;;;9.78;7.83;;;;;;;14.93;58.64;100594.72;1788909;80;21011;-80
2022/05/03 07:52:27;;;;;;;11.30;7.60;;;;;;;15.04;58.13;100601.23;1821277;78;21189;-80
2022/05/03 07:54:55;;;;;;;9.55;7.08;;;;;;;15.12;57.70;100603.01;1788985;80;20988;-76
2022/05/03 07:57:23;;;;;;;7.97;6.53;;;;;;;15.23;57.35;100603.77;1820781;78;21035;-80
2022/05/03 07:59:55;;;;;;;7.95;6.15;;;;;;;15.29;57.14;100595.04;1820793;78;21029;-85
2022/05/03 08:02:24;;;;;;;6.53;5.25;;;;;;;15.42;56.91;100596.56;1793667;78;21009;-81
2022/05/03 08:04:54;;;;;;;7.53;5.42;;;;;;;15.54;56.18;100605.12;1788941;80;21574;-78
2022/05/03 08:07:21;;;;;;;8.03;5.67;;;;;;;15.62;55.81;100604.25;1789128;80;21044;-75
2022/05/03 08:09:49;;;;;;;8.43;4.42;;;;;;;15.74;55.41;100603.22;1798669;78;21041;-75
2022/05/03 08:12:16;;;;;;;6.08;4.03;;;;;;;15.81;54.75;100604.59;1789086;80;21024;-75
2022/05/03 08:14:44;;;;;;;4.47;3.75;;;;;;;15.88;54.02;100606.41;1789107;78;21505;-75
2022/05/03 08:17:12;;;;;;;5.17;3.45;;;;;;;15.97;53.28;100612.06;1788886;80;21156;-75
2022/05/03 08:19:40;;;;;;;4.00;3.05;;;;;;;16.06;52.89;100610.20;1821236;78;20933;-75
2022/05/03 08:22:07;;;;;;;3.92;3.00;;;;;;;16.16;52.28;100612.36;1789056;80;21001;-75
2022/05/03 08:24:34;;;;;;;6.00;3.42;;;;;;;16.27;52.07;100604.66;1821311;78;21010;-75
2022/05/03 08:27:02;;;;;;;6.12;3.80;;;;;;;16.39;51.92;100612.34;1788793;80;21277;-79
2022/05/03 08:29:31;;;;;;;7.87;2.98;;;;;;;16.56;51.82;100611.36;1789721;78;21760;-76
2022/05/03 08:32:00;;;;;;;5.37;3.12;;;;;;;16.75;52.20;100615.95;1821262;78;20977;-76
2022/05/03 08:34:27;;;;;;;5.95;3.40;;;;;;;17.01;52.00;100609.11;1788868;80;20916;-77
2022/05/03 08:42:28;;;;;;;10.85;4.17;;;;;;;17.65;50.80;100596.80;1821511;78;21832;-77
2022/05/03 08:45:00;;;;;;;5.58;4.50;;;;;;;17.65;50.80;100596.80;1788758;80;21569;-76
2022/05/03 08:47:28;;;;;;;4.85;3.70;;;;;;;17.86;49.47;100599.45;1821404;78;21517;-77
2022/05/03 08:50:09;;;;;;;5.85;3.75;;;;;;;17.86;49.47;100599.45;1788915;80;21047;-76
2022/05/03 08:52:53;;;;;;;5.60;3.50;;;;;;;18.01;49.54;100601.58;1821190;78;21017;-76
2022/05/03 08:55:21;;;;;;;5.80;3.80;;;;;;;18.21;49.11;100609.11;1788938;80;21116;-76
2022/05/03 08:57:49;;;;;;;4.20;2.92;;;;;;;18.26;47.99;100604.35;1821190;78;21168;-76
2022/05/03 09:00:18;;;;;;;5.30;3.37;;;;;;;18.35;48.15;100608.20;1788828;80;20980;-77
2022/05/03 09:02:54;;;;;;;4.50;3.08;;;;;;;18.51;48.18;100605.34;1821430;78;21531;-77
2022/05/03 09:05:22;;;;;;;7.22;3.50;;;;;;;18.65;47.87;100609.28;1788903;80;21011;-76
2022/05/03 09:07:56;;;;;;;4.08;3.20;;;;;;;18.72;47.59;100602.58;1821078;78;21126;-76
2022/05/03 09:10:31;;;;;;;5.28;3.27;;;;;;;18.74;47.11;100601.20;1820993;78;21052;-76
2022/05/03 09:13:18;;;;;;;3.92;3.08;;;;;;;18.81;47.18;100602.46;1788729;80;21042;-76
2022/05/03 09:15:47;;;;;;;6.37;4.22;;;;;;;18.91;47.06;100606.69;1803308;78;21404;-77
2022/05/03 09:18:28;;;;;;;7.05;4.47;;;;;;;18.97;46.70;100608.91;1788898;80;21023;-78
2022/05/03 09:23:49;;;;;;;5.28;3.37;;;;;;;19.09;46.02;100603.22;1788926;80;21446;-76
2022/05/03 09:26:25;;;;;;;5.87;3.60;;;;;;;19.17;45.65;100605.71;1821235;78;21534;-76
2022/05/03 09:29:02;;;;;;;7.47;4.03;;;;;;;19.32;45.68;100594.99;1789022;80;20988;-77
2022/05/03 09:31:47;;;;;;;4.65;3.20;;;;;;;19.49;45.64;100600.44;1821622;78;21001;-76
2022/05/03 09:34:27;;;;;;;6.10;4.05;;;;;;;19.67;45.83;100604.45;1789008;80;21182;-76
2022/05/03 09:37:09;;;;;;;8.33;4.47;;;;;;;19.93;45.54;100606.58;1807090;79;21030;-77
2022/05/03 09:39:41;;;;;;;5.67;3.95;;;;;;;20.10;45.12;100600.50;1806468;79;20986;-77
2022/05/03 09:42:19;;;;;;;5.67;3.98;;;;;;;20.27;44.77;100603.59;1806897;79;21006;-77
2022/05/03 09:45:02;;;;;;;5.42;3.92;;;;;;;20.39;44.32;100608.48;1808423;79;21526;-76
2022/05/03 09:47:32;;;;;;;5.83;4.15;;;;;;;20.43;44.00;100606.46;1807472;79;21336;-77
2022/05/03 09:50:02;;;;;;;5.83;3.95;;;;;;;20.41;43.58;100609.22;1808307;79;21080;-77
2022/05/03 09:52:32;;;;;;;5.22;3.70;;;;;;;20.41;43.67;100613.70;1808510;79;21033;-77
2022/05/03 09:55:07;;;;;;;5.15;3.40;;;;;;;20.39;43.47;100607.15;1809079;79;21041;-77
2022/05/03 09:57:37;;;;;;;4.85;3.75;;;;;;;20.37;43.15;100612.22;1808761;79;21021;-77
2022/05/03 10:00:08;;;;;;;6.95;4.30;;;;;;;20.31;42.96;100606.87;1808511;79;21873;-77
2022/05/03 10:02:44;;;;;;;5.15;3.80;;;;;;;20.34;42.93;100606.67;1808868;79;21026;-77
2022/05/03 10:05:12;;;;;;;5.20;4.20;;;;;;;20.40;42.97;100606.20;1808738;79;21419;-77
2022/05/03 10:07:45;;;;;;;8.35;5.22;;;;;;;20.57;42.88;100606.30;1808767;79;21026;-77
2022/05/03 10:10:14;;;;;;;5.83;4.42;;;;;;;20.74;42.81;100609.50;1808517;79;21498;-77
2022/05/03 10:12:46;;;;;;;9.30;4.50;;;;;;;20.87;42.60;100600.45;1808769;79;27147;-77
2022/05/03 10:20:35;;;;;;;9.18;4.40;;;;;;;21.08;42.53;100594.41;1808439;79;21010;-76
2022/05/03 10:20:39;;;;;;;5.45;4.12;;;;;;;21.47;42.24;100593.59;1713716;83;21542;-76
2022/05/03 10:23:25;;;;;;;8.43;4.30;;;;;;;21.66;41.92;100593.82;1776751;80;21037;-76
2022/05/03 10:25:56;;;;;;;7.03;4.70;;;;;;;21.79;41.53;100589.69;1776612;80;21135;-77
2022/05/03 10:28:25;;;;;;;5.95;4.20;;;;;;;21.93;41.16;100593.41;1776743;80;21029;-76
2022/05/03 10:31:11;;;;;;;7.05;4.35;;;;;;;22.10;40.83;100584.52;1776827;80;21140;-76
2022/05/03 10:33:40;;;;;;;5.40;4.20;;;;;;;22.21;40.58;100588.02;1751246;80;21025;-77
2022/05/03 10:36:32;;;;;;;6.10;4.20;;;;;;;22.15;40.56;100579.64;1774321;80;20993;-75
2022/05/03 10:39:21;;;;;;;5.45;4.47;;;;;;;22.37;40.35;100582.25;1764062;80;21108;-77
2022/05/03 10:41:56;;;;;;;7.55;3.85;;;;;;;22.47;40.20;100580.97;1770647;80;21566;-79
2022/05/03 10:44:56;;;;;;;4.75;3.92;;;;;;;22.62;39.95;100578.36;1789940;80;21495;-78
2022/05/03 10:47:48;;;;;;;;;;;;;;;22.48;39.70;100571.52;1792370;80;21119;-78
2022/05/03 10:50:20;;;;;;;6.92;5.10;;;;;;;22.27;39.25;100571.47;1790040;80;20539;-78
2022/05/03 10:53:07;;;;;;;7.25;4.72;;;;;;;22.09;39.41;100564.98;1789675;80;21182;-79
2022/05/03 10:56:00;;;;;;;7.08;5.35;;;;;;;22.24;39.71;100562.39;1649904;86;21049;-75
2022/05/03 10:58:30;;;;;;;8.95;6.90;;;;;;;22.40;39.56;100560.62;1646314;85;21500;-75
2022/05/03 11:01:08;;;;;;;6.45;5.37;;;;;;;22.67;39.91;100566.80;1640363;87;21506;-76
2022/05/03 11:03:39;;;;;;;5.25;4.67;;;;;;;23.09;39.43;100564.59;1640196;87;21065;-75
2022/05/03 11:06:25;;;;;;;8.05;4.90;;;;;;;23.30;39.14;100557.84;1639899;87;22811;-75
2022/05/03 11:09:09;;;;;;;5.30;4.80;;;;;;;23.53;38.82;100556.67;1654420;86;21129;-75
2022/05/03 11:11:47;;;;;;;8.43;4.80;;;;;;;23.55;38.56;100553.84;1660988;86;21129;-75
2022/05/03 11:14:24;;;;;;;6.15;4.62;;;;;;;23.33;38.44;100558.44;1663921;86;21609;-76
2022/05/03 11:17:12;;;;;;;6.42;4.70;;;;;;;23.06;38.33;100563.53;1666386;86;21232;-77
2022/05/03 11:19:58;;;;;;;5.83;4.92;;;;;;;22.90;38.34;100554.12;1666931;86;21993;-78
2022/05/03 11:22:29;;;;;;;6.53;5.33;;;;;;;22.67;38.43;100549.43;1666273;86;21185;-77
2022/05/03 11:24:59;;;;;;;9.58;5.17;;;;;;;22.46;38.17;100549.42;1667832;86;21175;-77
2022/05/03 11:27:26;;;;;;;;;;;;;;;22.20;38.15;100556.96;1657411;85;21095;-77
2022/05/03 11:30:04;;;;;;;7.28;5.15;;;;;;;22.10;38.00;100557.33;1636136;87;20495;-77
2022/05/03 11:32:38;;;;;;;6.92;4.58;;;;;;;22.43;38.29;100550.17;1698480;80;21085;-79
2022/05/03 11:35:15;;;;;;;8.28;5.03;;;;;;;22.84;38.51;100546.64;1761351;80;21073;-77
2022/05/03 11:37:55;;;;;;;7.22;5.33;;;;;;;23.20;38.35;100543.61;1763760;81;20991;-77
2022/05/03 11:40:30;;;;;;;;;;;;;;;23.23;37.90;100542.84;1793817;79;21060;-77
2022/05/03 11:42:59;;;;;;;5.85;4.72;;;;;;;22.98;37.36;100544.14;1803719;79;20433;-77
2022/05/03 11:45:27;;;;;;;7.47;5.00;;;;;;;22.76;37.91;100540.27;1792842;77;21693;-77
2022/05/03 11:47:54;;;;;;;6.35;4.95;;;;;;;22.57;37.83;100543.17;1816382;79;20986;-76
2022/05/03 11:56:09;;;;;;;8.18;5.47;;;;;;;22.48;38.35;100546.14;1784291;80;21085;-74
2022/05/03 11:58:39;;;;;;;7.67;5.03;;;;;;;22.92;38.78;100540.14;1784759;79;21184;-77
2022/05/03 12:01:15;;;;;;;7.78;4.97;;;;;;;23.48;38.83;100535.33;1792110;80;21012;-77
2022/05/03 12:03:48;;;;;;;7.00;5.08;;;;;;;23.86;38.33;100531.03;1810061;78;21513;-76
2022/05/03 12:06:17;;;;;;;6.67;5.00;;;;;;;23.96;37.44;100531.90;1784617;79;21040;-77
2022/05/03 12:08:46;;;;;;;5.50;4.80;;;;;;;24.27;37.10;100541.47;1821701;78;21029;-76
2022/05/03 12:11:24;;;;;;;8.73;5.12;;;;;;;24.33;36.85;100536.53;1825076;78;21097;-77
2022/05/03 12:13:51;;;;;;;7.58;4.80;;;;;;;24.19;36.46;100537.81;1786128;80;21045;-77
2022/05/03 12:16:24;;;;;;;5.20;4.67;;;;;;;23.78;36.27;100541.13;1810729;78;21546;-76
2022/05/03 12:18:53;;;;;;;6.53;4.45;;;;;;;23.47;36.50;100530.44;1810387;78;21291;-79
2022/05/03 12:21:26;;;;;;;7.95;5.15;;;;;;;23.76;37.00;100527.03;1778669;78;21076;-78
2022/05/03 12:24:02;;;;;;;5.50;4.85;;;;;;;23.85;36.41;100526.18;1813099;78;21503;-76
2022/05/03 12:26:38;;;;;;;7.45;4.70;;;;;;;23.85;36.16;100515.47;1737892;81;21036;-76